West Olive, MI (49460)

9:30 AM EDT on May 25, 2015 (GMT -0400)
Sheldon Dunes | | Change Station
CLOSE
Current Station
Personal Weather Station
Location: West Olive, MI
Elevation: 646 ft
Nearby Weather Stations

Elev 646 ft 42.94 °N, 86.21 °W | Updated 4 seconds ago

Overcast
Overcast
71.8 °F
Feels Like 74 °F
N
4.5
Wind Variable Wind from SW
Gusts 6.0 mph

Today
High -- | Low -- °F
--% Chance of Precip.
Yesterday
High -- | Low -- °F
Precip. -- in
6:12 AM 9:10 PM
Waxing Crescent, 48% visible
Pressure 29.89 in
Visibility 10.0 miles
Clouds Mostly Cloudy 3700 ft
Heat Index 74 °F
Dew Point 63 °F
Humidity 74%
Rainfall 0.00 in
Snow Depth Not available.
UV 1 out of 12
Pollen 3.80 out of 12
Air Quality Not available.
Flu Activity Sporadic
METAR KBIV 251253Z AUTO 18010KT 10SM BKN037 23/17 A2990 RMK AO2 RAE1159 SLP120 P0000 T02280172 $

More Conditions Fewer Conditions

Pressure 29.89 in
Visibility 10.0 miles
Clouds Mostly Cloudy 3700 ft
Heat Index 74 °F
Dew Point 63 °F
Humidity 74%
Rainfall 0.00 in
Snow Depth Not available.
UV 1 out of 12
Pollen 3.80 out of 12
Air Quality Not available.
Flu Activity Sporadic
METAR KBIV 251253Z AUTO 18010KT 10SM BKN037 23/17 A2990 RMK AO2 RAE1159 SLP120 P0000 T02280172 $

More Conditions Fewer Conditions

10-Day Weather Forecast

Almanac

Astronomy

May. 25, 2015 Rise Set
Actual Time
Civil Twilight
Nautical Twilight
Astronomical Twilight
Moon
Length of Visible Light
Length of Day
Tomorrow will be .
, % of the Moon is Illuminated

Today's Extremes

State Highs State Lows

Community

WunderPhotos

Upload Photos

1,824,002 photos uploaded!

WunderBlogs® & News

Nearby

Air Quality

  Air Quality AQ Index Pollutant
Not available.

Snow Depth

Station Depth Elevation

Earthquake Activity

City Distance Mag. Time & Date
Minimum magnitude displayed is 2.5.

Coastal Water Temperatures

Place Temperature

Stations

Nearby Weather Stations

Station Location Temp. Windchill Dew Point Humidity Wind Precip. Elev Updated Type